Station: Bickley  

  Atmospheric Gas Attenuation - ITU Rec 676-11   ----------------- dB/100km -----------------
Date Time Temp RH % AH g/m3 Dew Point Wind Direction Speed kph Gust kph Barometer mB Rainfall Since 9am 24GHz 47GHz 76GHz 122GHz 134GHz 241GHz
08/05 09:20 14.9 67 8.54 8.8 19 39 1013.1 0 19.4 25.5 39.0 102.4 96.2 331.0
08/05 09:10 14.6 70 8.76 9.2 30 35 1013.1 0 19.9 25.9 40.0 105.1 99.5 342.4
08/05 09:00 14 72 8.68 9 24 44 1013.1 0 19.8 26.0 40.0 105.0 99.2 341.3
08/05 08:50 13.4 74 8.6 8.9 28 43 1013.1 0 19.6 26.0 40.0 105.0 98.9 340.2
08/05 08:40 12.8 76 8.51 8.7 24 33 1013.1 0 19.4 26.0 39.9 104.8 98.5 338.6
08/05 08:30 12.3 77 8.36 8.4 22 41 1013.1 0 19.1 25.9 39.6 103.8 97.1 333.7
08/05 08:20 11.8 78 8.21 8.1 15 20 1013.1 0 18.9 25.8 39.2 102.9 95.7 328.8
08/05 08:10 11.4 80 8.21 8.1 24 33 1013.1 0 18.9 26.0 39.4 103.4 96.2 330.5
08/05 08:00 11 81 8.11 7.9 24 35 1013.1 0 18.7 25.9 39.2 102.8 95.4 327.5
08/05 07:50 10.7 82 8.06 7.8 22 30 1013.1 0 18.6 25.9 39.1 102.7 95.0 326.4
08/05 07:40 10.5 82 7.95 7.6 19 24 1013.1 0 18.4 25.8 38.8 101.7 93.8 322.0
08/05 07:30 10.2 83 7.9 7.4 22 35 1013.1 0 18.3 25.8 38.7 101.6 93.5 320.8
08/05 07:20 10.1 83 7.85 7.3 24 30 1013.1 0 18.2 25.7 38.6 101.2 92.9 318.9
08/05 07:10 10.1 82 7.76 7.2 20 26 1013.1 0 18.0 25.6 38.2 100.2 91.7 314.6
08/05 07:00 10 82 7.71 7.1 20 33 1013.1 0 17.9 25.5 38.1 99.7 91.2 312.7
08/05 06:50 10.1 81 7.66 7 22 35 1013.1 0 17.7 25.4 37.8 99.1 90.4 309.9
08/05 06:40 10.1 81 7.66 7 22 30 1013.1 0 17.7 25.4 37.8 99.1 90.4 309.9
08/05 06:30 10.1 80 7.57 6.8 20 32 1013.1 0 17.6 25.3 37.4 98.1 89.2 305.7
08/05 06:20 10.3 79 7.57 6.8 20 28 1013.1 0 17.5 25.2 37.3 97.9 88.9 304.9
08/05 06:10 10.3 79 7.57 6.8 20 28 1013.1 0 17.5 25.2 37.3 97.9 88.9 304.9
08/05 06:00 10.4 78 7.52 6.7 20 35 1013.1 0 17.4 25.1 37.1 97.2 88.2 302.2
08/05 05:50 10.5 77 7.47 6.6 26 32 1013.1 0 17.3 25.0 36.8 96.5 87.4 299.5
08/05 05:40 10.7 76 7.47 6.6 24 30 1013.1 0 17.3 24.9 36.7 96.3 87.2 298.7
08/05 05:30 10.6 76 7.42 6.6 26 35 1013.1 0 17.2 24.9 36.6 95.9 86.6 296.8
08/05 05:20 10.7 76 7.47 6.6 24 33 1013.1 0 17.3 24.9 36.7 96.3 87.2 298.7
08/05 05:10 10.9 75 7.46 6.6 22 28 1013.1 0 17.3 24.9 36.6 95.9 86.8 297.5
08/05 05:00 10.8 75 7.41 6.6 22 35 1013.1 0 17.2 24.8 36.5 95.5 86.3 295.6
08/05 04:50 11 74 7.41 6.6 24 32 1013.1 0 17.2 24.8 36.4 95.3 86.0 294.8
08/05 04:40 11.2 73 7.4 6.5 24 32 1013.1 0 17.1 24.7 36.2 94.9 85.7 293.6
08/05 04:30 11.2 73 7.4 6.5 24 41 1013.1 0 17.1 24.7 36.2 94.9 85.7 293.6
08/05 04:20 11.4 72 7.39 6.5 26 39 1013.1 0 17.1 24.6 36.1 94.6 85.3 292.4
08/05 04:10 11.7 72 7.53 6.8 26 35 1013.1 0 17.4 24.8 36.5 95.7 86.8 297.7
08/05 04:00 11.8 71 7.47 6.7 26 41 1013.1 0 17.3 24.6 36.2 94.9 85.9 294.6
08/05 03:50 11.8 71 7.47 6.7 24 35 1013.1 0 17.3 24.6 36.2 94.9 85.9 294.6
08/05 03:40 11.7 71 7.43 6.6 22 39 1013.1 0 17.2 24.6 36.1 94.6 85.5 293.2
08/05 03:30 11.9 71 7.52 6.8 24 41 1013.1 0 17.4 24.7 36.4 95.4 86.5 296.5
08/05 03:20 12 70 7.46 6.7 19 26 1013.1 0 17.2 24.6 36.1 94.6 85.6 293.4
08/05 03:10 12.2 69 7.45 6.7 24 30 1013.1 0 17.2 24.5 36.0 94.3 85.2 292.2
08/05 03:00 12.3 69 7.49 6.8 22 39 1013.1 0 17.3 24.5 36.1 94.6 85.7 293.7
08/05 02:50 12.4 69 7.54 6.9 26 39 1013.1 0 17.4 24.6 36.2 95.0 86.2 295.5
08/05 02:40 12.3 69 7.49 6.8 15 22 1013.1 0 17.3 24.5 36.1 94.6 85.7 293.7
08/05 02:30 12 71 7.57 6.9 24 43 1013.1 0 17.5 24.7 36.5 95.8 87.0 298.4
08/05 02:20 12.2 70 7.55 6.9 26 35 1013.1 0 17.4 24.7 36.4 95.3 86.5 296.8
08/05 02:10 12.2 70 7.55 6.9 22 39 1013.1 0 17.4 24.7 36.4 95.3 86.5 296.8
08/05 02:00 12.3 69 7.49 6.8 24 39 1013.1 0 17.3 24.5 36.1 94.6 85.7 293.7
08/05 01:50 12.4 69 7.54 6.9 26 35 1013.1 0 17.4 24.6 36.2 95.0 86.2 295.5
08/05 01:40 12.5 69 7.59 7 32 44 1013.1 0 17.5 24.6 36.4 95.4 86.7 297.4
08/05 01:30 12.4 69 7.54 6.9 26 46 1013.1 0 17.4 24.6 36.2 95.0 86.2 295.5
08/05 01:20 12.7 67 7.46 6.7 22 33 1013.1 0 17.2 24.4 35.8 93.8 84.8 290.8
08/05 01:10 12.7 68 7.57 7 22 33 1013.1 0 17.4 24.6 36.2 94.9 86.2 295.8
08/05 01:00 12.9 67 7.55 6.9 28 54 1013.1 0 17.4 24.5 36.1 94.5 85.8 294.1
08/05 00:50 12.9 66 7.44 6.7 28 48 1013.1 0 17.2 24.3 35.6 93.3 84.4 289.2
08/05 00:40 13.1 66 7.53 6.9 19 28 1013.1 0 17.3 24.4 35.9 94.0 85.3 292.5
08/05 00:30 13.1 66 7.53 6.9 24 44 1013.1 0 17.3 24.4 35.9 94.0 85.3 292.5
08/05 00:20 13 66 7.49 6.8 22 33 1013.1 0 17.3 24.3 35.8 93.7 84.9 291.1
08/05 00:10 13 66 7.49 6.8 28 33 1013.1 0 17.3 24.3 35.8 93.7 84.9 291.1
08/05 00:00 13.2 65 7.46 6.8 22 48 1013.1 0 17.2 24.2 35.6 93.2 84.3 289.0
07/05 23:50 13.2 64 7.35 6.5 22 32 1013.1 0 16.9 24.1 35.2 92.0 82.9 284.1
07/05 23:40 13.2 64 7.35 6.5 22 35 1013.1 0 16.9 24.1 35.2 92.0 82.9 284.1
07/05 23:30 13.2 64 7.35 6.5 24 43 1013.1 0 16.9 24.1 35.2 92.0 82.9 284.1
07/05 23:20 13.3 63 7.28 6.4 30 41 1013.1 0 16.8 23.9 34.8 91.2 81.9 280.6
07/05 23:10 13.5 62 7.25 6.4 28 35 1013.1 0 16.7 23.8 34.6 90.7 81.3 278.6
07/05 23:00 13.6 62 7.3 6.5 26 43 1013.1 0 16.8 23.9 34.8 91.1 81.8 280.4
07/05 22:50 13.9 60 7.19 6.3 28 39 1013.1 0 16.6 23.6 34.2 89.6 80.1 274.6
07/05 22:40 13.9 60 7.19 6.3 22 30 1013.1 0 16.6 23.6 34.2 89.6 80.1 274.6
07/05 22:30 13.9 60 7.19 6.3 24 52 1013.1 0 16.6 23.6 34.2 89.6 80.1 274.6
07/05 22:20 14.1 59 7.16 6.2 24 35 1013.1 0 16.5 23.5 34.0 89.1 79.6 272.6
07/05 22:10 14.5 57 7.09 6.1 24 33 1013.1 0 16.3 23.3 33.6 87.9 78.3 268.2
07/05 22:00 14.4 58 7.17 6.3 32 54 1013.1 0 16.5 23.5 34.0 88.9 79.4 272.0
07/05 21:50 14.5 57 7.09 6.1 30 44 1013.1 0 16.3 23.3 33.6 87.9 78.3 268.2
07/05 21:40 14.5 56 6.97 5.8 35 52 1013.1 0 16.1 23.2 33.2 86.7 76.8 263.0
07/05 21:30 14.5 56 6.97 5.8 30 48 1013.1 0 16.1 23.2 33.2 86.7 76.8 263.0
07/05 21:20 14.5 56 6.97 5.8 24 39 1013.1 0 16.1 23.2 33.2 86.7 76.8 263.0
07/05 21:10 14.8 55 6.97 5.9 28 39 1013.1 0 16.1 23.1 33.0 86.4 76.5 262.0
07/05 21:00 14.6 55 6.88 5.7 28 50 1013.1 0 15.9 23.0 32.8 85.7 75.6 258.8
07/05 20:50 14.9 54 6.88 5.7 26 39 1013.1 0 15.9 22.9 32.7 85.4 75.3 257.8
07/05 20:40 14.7 54 6.8 5.5 22 33 1013.1 0 15.7 22.8 32.5 84.8 74.5 255.0
07/05 20:30 15.2 53 6.88 5.7 22 35 1013.1 0 15.9 22.8 32.5 85.1 75.0 256.8
07/05 20:20 15.4 52 6.83 5.6 30 39 1013.1 0 15.8 22.7 32.3 84.4 74.3 254.1
07/05 20:10 15.4 52 6.83 5.6 20 32 1013.1 0 15.8 22.7 32.3 84.4 74.3 254.1
07/05 20:00 15.3 52 6.79 5.5 24 41 1013.1 0 15.7 22.7 32.2 84.1 73.9 252.7
07/05 19:50 15.4 51 6.7 5.3 26 39 1013.1 0 15.5 22.5 31.8 83.1 72.7 248.6
07/05 19:40 15.4 52 6.83 5.6 20 30 1013.1 0 15.8 22.7 32.3 84.4 74.3 254.1
07/05 19:30 15.6 51 6.78 5.5 24 41 1013.1 0 15.6 22.6 32.0 83.7 73.5 251.3
07/05 19:20 15.3 52 6.79 5.5 19 30 1013.1 0 15.7 22.7 32.2 84.1 73.9 252.7
07/05 19:10 15.6 51 6.78 5.5 24 33 1013.1 0 15.6 22.6 32.0 83.7 73.5 251.3
07/05 19:00 15.4 52 6.83 5.6 22 43 1013.1 0 15.8 22.7 32.3 84.4 74.3 254.1
07/05 18:50 15.7 51 6.82 5.6 24 32 1013.1 0 15.7 22.6 32.1 84.0 73.9 252.7
07/05 18:40 15.5 53 7.01 6 22 35 1013.1 0 16.1 23.0 32.9 86.1 76.3 261.4
07/05 18:30 15.6 52 6.92 5.8 22 39 1013.1 0 15.9 22.8 32.5 85.1 75.2 257.3
07/05 18:20 15.9 51 6.91 5.8 22 32 1013.1 0 15.9 22.7 32.4 84.7 74.8 255.9
07/05 18:10 15.7 52 6.96 5.9 22 28 1013.1 0 16.0 22.8 32.6 85.4 75.5 258.6
07/05 18:00 15.6 53 7.05 6.1 20 30 1013.1 0 16.2 23.0 33.0 86.3 76.7 262.8
07/05 17:50 16 52 7.08 6.2 22 28 1013.1 0 16.3 22.9 33.0 86.2 76.7 262.8
07/05 17:40 16.1 52 7.13 6.3 22 32 1013.1 0 16.4 23.0 33.1 86.6 77.2 264.6
07/05 17:30 16.5 50 7.02 6.1 20 33 1013.1 0 16.1 22.7 32.5 85.1 75.5 258.6
07/05 17:20 16.6 51 7.2 6.4 20 26 1013.1 0 16.5 23.0 33.2 86.7 77.6 265.9
07/05 17:10 16.8 51 7.29 6.6 20 30 1013.1 0 16.7 23.0 33.4 87.4 78.5 269.0
07/05 17:00 17.3 49 7.22 6.5 24 39 1013.1 0 16.5 22.8 32.9 86.2 77.1 264.4
07/05 16:50 17.6 50 7.5 7.1 22 30 1013.1 0 17.1 23.2 33.8 88.6 80.2 275.2

Last Refresh: 08-May-2026 11:04:03

Bureau of Meteorology